Date,TemperatureHighF,TemperatureAvgF,TemperatureLowF,DewpointHighF,DewpointAvgF,DewpointLowF,HumidityHigh,HumidityAvg,HumidityLow,PressureMaxIn,PressureMinIn,WindSpeedMaxMPH,WindSpeedAvgMPH,GustSpeedMaxMPH,PrecipitationSumIn
2013-1-1,43,38,32,11,7,3,35,28,19,0.00,40.00,43,14,63,0.00
2013-1-2,57,42,33,10,6,1,32,23,13,0.00,40.00,37,14,56,0.00
2013-1-3,52,44,38,12,8,5,29,23,17,0.00,40.00,10,3,21,0.00
2013-1-4,52,43,36,13,7,4,26,23,16,0.00,40.00,6,2,12,0.00
2013-1-5,51,42,37,12,5,1,28,21,15,0.00,40.00,8,4,14,0.00
2013-1-6,49,40,32,25,15,1,56,37,21,0.00,40.00,44,15,64,0.00
2013-1-7,55,46,37,26,12,6,45,27,15,0.00,40.00,58,36,79,0.00
2013-1-8,62,53,49,31,21,-100,44,34,24,0.00,40.00,34,-31,51,0.00
2013-1-9,58,52,48,28,26,22,45,36,27,0.00,40.00,24,5,46,0.00
2013-1-10,52,39,33,29,10,-2,48,31,17,0.00,40.00,36,25,60,0.00
2013-1-11,43,34,30,13,5,0,44,29,17,0.00,40.00,29,12,50,0.00
2013-1-12,39,31,25,12,6,2,47,35,21,0.00,40.00,23,10,44,0.00
2013-1-13,36,30,25,5,1,-4,38,29,20,0.00,40.00,42,6,58,0.00
2013-1-14,34,27,19,-3,-7,-10,34,22,14,0.00,40.00,42,11,58,0.00
2013-1-15,45,34,27,1,-4,-7,23,19,13,0.00,40.00,6,2,12,0.00
2013-1-16,53,44,35,8,5,0,26,20,15,0.00,40.00,17,4,34,0.00
2013-1-17,57,48,41,5,2,-5,19,15,11,0.00,40.00,34,12,52,0.00
2013-1-18,59,49,43,3,-2,-6,16,12,10,0.00,40.00,13,4,22,0.00
2013-1-19,61,50,45,2,-3,-6,13,11,8,0.00,40.00,24,6,33,0.00
2013-1-20,59,51,41,0,-3,-5,16,11,8,0.00,40.00,37,14,49,0.00
2013-1-21,65,52,41,2,0,-4,18,12,8,0.00,40.00,29,10,43,0.00
2013-1-22,63,55,48,6,2,-2,14,12,9,0.00,40.00,8,4,21,0.00
2013-1-23,59,54,50,38,13,4,58,23,12,0.00,40.00,14,4,31,0.00
2013-1-24,50,46,44,48,43,35,99,89,58,0.00,40.00,7,2,24,0.23
2013-1-25,53,48,46,48,45,42,100,88,74,0.00,40.00,5,1,8,0.05
2013-1-26,56,48,44,49,44,26,100,88,39,0.00,40.00,26,5,33,0.09
2013-1-27,50,44,38,37,23,9,75,45,20,0.00,40.00,27,12,42,0.00
2013-1-28,43,37,32,18,12,3,49,35,19,0.00,40.00,27,15,40,0.00
2013-1-29,54,44,33,27,19,14,47,37,29,0.00,40.00,55,7,69,0.00
2013-1-30,59,52,46,28,26,24,44,37,28,0.00,40.00,37,10,69,0.00
2013-1-31,66,55,45,27,25,22,45,33,22,0.00,40.00,18,7,26,0.00
2013-2-1,65,53,47,27,25,22,41,33,22,0.00,40.00,12,4,18,0.00
2013-2-2,62,55,51,32,22,19,46,28,21,0.00,40.00,9,2,15,0.00
2013-2-3,66,55,48,34,30,23,53,40,20,0.00,40.00,17,5,24,0.00
2013-2-4,69,57,48,26,18,14,35,22,14,0.00,40.00,31,11,41,0.00
2013-2-5,64,56,48,22,16,-3,30,21,8,0.00,40.00,40,6,52,0.00
2013-2-6,62,54,48,14,-2,-10,24,10,5,0.00,40.00,40,11,57,0.00
2013-2-7,61,50,41,19,11,-11,31,22,8,0.00,40.00,24,7,45,0.00
2013-2-8,42,38,35,23,16,8,53,41,27,0.00,40.00,35,16,52,0.00
2013-2-9,52,41,35,18,14,10,42,34,21,0.00,40.00,24,11,37,0.00
2013-2-10,48,41,36,16,12,9,43,30,22,0.00,40.00,32,16,47,0.00
2013-2-11,47,39,34,14,5,-3,39,25,13,0.00,40.00,30,20,47,0.00
2013-2-12,55,43,36,9,4,-2,27,20,13,0.00,40.00,7,2,15,0.00
2013-2-13,63,50,42,15,10,6,26,20,13,0.00,40.00,18,6,35,0.00
2013-2-14,66,54,47,22,19,15,34,25,15,0.00,40.00,40,20,57,0.00
2013-2-15,68,57,51,20,15,9,28,20,12,0.00,40.00,40,19,55,0.00
2013-2-16,66,57,50,11,4,-1,18,12,8,0.00,40.00,14,4,18,0.00
2013-2-17,67,57,49,18,6,-2,21,13,7,0.00,40.00,24,7,37,0.00
2013-2-18,61,53,44,20,14,4,31,21,14,0.00,40.00,26,10,37,0.00
2013-2-19,49,42,35,30,22,8,72,46,24,0.00,40.00,35,15,60,0.00
2013-2-20,51,42,33,24,13,4,67,34,14,0.00,40.00,51,27,67,0.00
2013-2-21,49,40,33,12,7,0,34,25,16,0.00,40.00,33,13,54,0.00
2013-2-22,58,46,38,15,7,5,29,20,13,0.00,40.00,10,3,19,0.00
2013-2-23,61,45,36,22,16,2,50,32,9,0.00,40.00,52,17,76,0.00
2013-2-24,51,41,34,8,2,-6,30,20,9,0.00,40.00,47,23,60,0.00
2013-2-25,57,46,38,5,0,-4,19,15,10,0.00,40.00,12,3,21,0.00
2013-2-26,61,48,42,6,4,-1,22,16,9,0.00,40.00,25,6,40,0.00
2013-2-27,58,48,38,6,2,0,20,15,11,0.00,40.00,12,4,21,0.00
2013-2-28,64,53,44,8,4,1,22,14,9,0.00,40.00,9,3,17,0.00
2013-3-1,74,60,51,19,13,7,21,16,11,0.00,40.00,21,8,33,0.00
2013-3-2,71,63,55,23,17,13,22,17,12,0.00,40.00,19,8,29,0.00
2013-3-3,67,58,51,31,26,17,39,29,19,0.00,40.00,41,16,61,0.00
2013-3-4,71,56,48,29,23,13,45,29,12,0.00,40.00,31,13,46,0.00
2013-3-5,66,57,47,29,24,16,39,29,16,0.00,40.00,29,11,40,0.00
2013-3-6,58,50,40,29,20,10,65,33,18,0.00,40.00,32,15,56,0.00
2013-3-7,55,45,37,31,27,12,70,51,23,0.00,40.00,28,8,37,0.00
2013-3-8,42,37,34,36,32,22,98,81,45,0.00,40.00,28,6,42,0.00
2013-3-9,58,48,41,22,16,3,45,29,14,0.00,40.00,47,29,68,0.00
2013-3-10,68,55,46,5,1,-6,15,11,6,0.00,40.00,47,21,68,0.00
2013-3-11,70,59,52,9,4,-3,13,11,8,0.00,40.00,10,3,17,0.00
2013-3-12,75,64,57,12,9,6,14,11,7,0.00,40.00,14,5,23,0.00
2013-3-13,78,68,59,17,13,9,15,12,9,0.00,40.00,12,4,21,0.00
2013-3-14,82,71,62,22,18,15,17,14,9,0.00,40.00,18,6,27,0.00
2013-3-15,85,73,66,36,22,14,26,15,9,0.00,40.00,34,10,47,0.00
2013-3-16,82,70,63,33,17,6,21,14,7,0.00,40.00,35,20,56,0.00
2013-3-17,77,66,55,18,10,3,16,11,8,0.00,40.00,29,15,54,0.00
2013-3-18,70,64,55,26,11,-3,23,13,7,0.00,40.00,35,14,51,0.00
2013-3-19,75,65,58,28,22,16,28,20,12,0.00,40.00,34,20,51,0.00
2013-3-20,75,64,56,32,25,11,40,24,14,0.00,40.00,29,13,59,0.00
2013-3-21,74,65,55,26,13,5,24,14,9,0.00,40.00,36,16,51,0.00
2013-3-22,73,60,50,20,14,-8,29,18,5,0.00,40.00,41,19,56,0.00
2013-3-23,65,57,49,9,-2,-9,15,9,6,0.00,40.00,26,10,45,0.00
2013-3-24,71,58,48,17,4,-1,21,11,7,0.00,40.00,11,5,21,0.00
2013-3-25,71,61,53,20,14,-10,25,17,5,0.00,40.00,17,6,25,0.00
2013-3-26,74,63,57,23,9,-10,23,12,5,0.00,40.00,33,18,52,0.00
2013-3-27,70,62,55,29,22,16,27,22,16,0.00,40.00,32,16,45,0.00
2013-3-28,72,66,59,34,26,19,30,22,18,0.00,40.00,28,17,45,0.00
2013-3-29,75,65,54,28,22,14,32,21,11,0.00,40.00,16,7,31,0.00
2013-3-30,79,66,58,33,25,-100,38,24,11,0.00,40.00,19,7,26,0.00
2013-3-31,71,59,51,39,34,27,56,40,21,0.00,40.00,27,10,40,0.00
2013-4-1,69,58,50,31,26,16,47,31,19,0.00,40.00,28,14,43,0.00
2013-4-2,73,61,53,34,24,16,37,25,13,0.00,40.00,28,14,41,0.00
2013-4-3,77,67,58,34,25,20,37,21,13,0.00,40.00,18,7,28,0.00
2013-4-4,71,65,59,37,29,21,32,26,18,0.00,40.00,30,14,50,0.00
2013-4-5,73,64,56,34,24,18,32,22,13,0.00,40.00,30,18,47,0.00
2013-4-6,76,65,57,33,25,14,30,22,13,0.00,40.00,31,14,40,0.00
2013-4-7,78,64,56,34,24,8,32,22,10,0.00,40.00,40,15,55,0.00
2013-4-8,58,50,37,35,22,11,84,34,23,0.00,40.00,66,27,88,0.01
2013-4-9,64,51,41,17,8,-1,35,19,8,0.00,40.00,61,44,85,0.01
2013-4-10,79,63,51,24,11,6,21,13,8,0.00,40.00,43,21,67,0.00
2013-4-11,78,68,57,25,20,16,25,17,10,0.00,40.00,24,9,35,0.00
2013-4-12,79,68,59,27,23,15,26,19,12,0.00,40.00,30,17,41,0.00
2013-4-13,81,71,62,32,20,-1,26,15,7,0.00,40.00,45,20,69,0.00
2013-4-14,80,71,63,30,24,9,23,18,10,0.00,40.00,44,23,80,0.00
2013-4-15,73,58,48,21,11,-21,31,17,2,0.00,40.00,36,19,64,0.00
2013-4-16,52,46,41,21,14,-7,41,29,12,0.00,40.00,44,26,56,0.00
2013-4-17,60,48,38,13,6,1,32,20,9,0.00,40.00,47,32,63,0.00
2013-4-18,67,53,43,9,3,-1,21,14,7,0.00,40.00,38,17,48,0.00
2013-4-19,74,62,52,25,9,0,21,12,7,0.00,40.00,19,8,34,0.00
2013-4-20,79,68,58,32,21,16,24,18,10,0.00,40.00,28,15,49,0.00
2013-4-21,85,72,60,29,22,17,27,16,9,0.00,40.00,27,9,42,0.00
2013-4-22,86,74,64,30,24,20,23,16,9,0.00,40.00,37,14,45,0.00
2013-4-23,75,65,57,27,13,3,20,14,8,0.00,40.00,48,24,71,0.00
2013-4-24,80,67,57,20,7,1,19,10,5,0.00,40.00,33,13,50,0.00
2013-4-25,83,69,60,31,13,2,25,12,6,0.00,40.00,26,12,38,0.00
2013-4-26,84,75,64,32,14,3,23,11,6,0.00,40.00,28,14,37,0.00
2013-4-27,88,76,67,25,17,9,18,11,5,0.00,40.00,29,14,37,0.00
2013-4-28,90,80,71,29,21,16,16,12,7,0.00,40.00,24,15,38,0.00
2013-4-29,92,80,70,35,25,19,19,13,8,0.00,40.00,22,13,38,0.00
2013-4-30,86,79,73,37,27,15,26,16,7,0.00,40.00,48,20,60,0.00
2013-5-1,79,68,57,19,-6,-20,15,6,2,0.00,40.00,55,29,75,0.00
2013-5-2,78,67,59,0,-7,-14,9,5,3,0.00,40.00,37,19,58,0.00
2013-5-3,82,71,62,21,-3,-13,14,6,3,0.00,40.00,21,8,33,0.00
2013-5-4,84,73,66,25,15,6,20,11,6,0.00,40.00,25,15,38,0.00
2013-5-5,67,58,48,38,29,22,65,35,20,0.00,40.00,26,9,37,0.00
2013-5-6,62,52,43,46,38,35,90,60,39,0.00,40.00,26,8,37,0.03
2013-5-7,64,54,44,43,37,31,76,54,38,0.00,40.00,26,9,42,0.02
2013-5-8,73,60,49,37,34,29,61,40,22,0.00,40.00,16,6,28,0.01
2013-5-9,71,61,55,47,39,33,66,45,31,0.00,40.00,41,11,57,0.09
2013-5-10,86,71,59,43,28,-100,51,25,11,0.00,40.00,34,23,46,0.03
2013-5-11,89,79,71,38,27,-100,23,16,10,0.00,40.00,21,12,29,0.00
2013-5-12,94,82,73,39,30,18,23,16,7,0.00,40.00,19,9,29,0.00
2013-5-13,95,84,74,37,28,19,21,14,7,0.00,40.00,21,12,37,0.00
2013-5-14,87,78,70,33,24,10,25,14,6,0.00,40.00,39,16,60,0.00
2013-5-15,88,78,69,33,28,12,25,17,9,0.00,40.00,37,22,58,0.00
2013-5-16,84,67,62,35,9,-100,33,17,6,0.00,40.00,40,16,56,0.00
2013-5-17,77,67,60,37,32,-100,36,29,20,0.00,40.00,39,23,56,0.00
2013-5-18,83,71,63,31,25,17,26,18,11,0.00,40.00,33,17,44,0.00
2013-5-19,85,72,64,29,23,13,25,16,10,0.00,40.00,36,16,49,0.00
2013-5-20,84,72,64,27,17,11,20,13,7,0.00,40.00,43,24,58,0.00
2013-5-21,89,74,65,29,22,14,22,15,7,0.00,40.00,24,8,40,0.00
2013-5-22,87,70,60,28,19,-6,25,15,6,0.00,40.00,36,23,62,0.00
2013-5-23,81,66,55,19,10,-6,23,12,6,0.00,40.00,31,13,57,0.00
2013-5-24,79,67,56,22,13,3,19,13,6,0.00,40.00,19,8,30,0.00
2013-5-25,82,68,55,28,23,16,33,20,9,0.00,40.00,34,12,49,0.00
2013-5-26,82,70,60,34,24,16,27,18,11,0.00,40.00,33,16,54,0.00
2013-5-27,84,73,65,34,27,16,28,19,10,0.00,40.00,36,18,56,0.00
2013-5-28,86,74,66,37,34,30,30,24,14,0.00,40.00,34,20,54,0.00
2013-5-29,87,73,61,40,35,25,38,25,16,0.00,40.00,26,13,42,0.00
2013-5-30,92,78,68,38,29,20,29,17,10,0.00,40.00,35,15,48,0.00
2013-5-31,92,82,72,24,21,19,16,11,8,0.00,40.00,35,15,47,0.00
2013-6-1,94,84,75,25,15,9,11,8,5,0.00,40.00,24,13,35,0.00
2013-6-2,94,84,75,32,23,17,17,11,7,0.00,40.00,22,10,38,0.00
2013-6-3,92,81,71,36,31,24,25,17,9,0.00,40.00,21,9,34,0.00
2013-6-4,96,83,70,39,33,23,27,18,8,0.00,40.00,19,6,28,0.00
2013-6-5,97,85,74,40,31,18,28,16,6,0.00,40.00,22,8,36,0.00
2013-6-6,102,90,78,39,24,16,17,10,5,0.00,40.00,28,13,40,0.00
2013-6-7,102,92,81,30,24,16,15,9,5,0.00,40.00,32,12,44,0.00
2013-6-8,105,94,85,34,23,18,13,8,5,0.00,40.00,37,15,49,0.00
2013-6-9,95,86,76,41,25,-3,24,13,3,0.00,40.00,23,9,42,0.00
2013-6-10,82,76,68,36,20,4,23,13,6,0.00,40.00,39,16,57,0.00
2013-6-11,95,82,71,36,30,19,25,16,8,0.00,40.00,39,14,57,0.00
2013-6-12,94,83,73,38,24,15,25,12,8,0.00,40.00,30,12,48,0.00
2013-6-13,95,82,73,33,19,-28,21,11,1,0.00,40.00,42,20,58,0.00
2013-6-14,90,80,69,22,12,4,12,8,4,0.00,40.00,29,17,42,0.00
2013-6-15,91,78,67,28,19,10,20,12,5,0.00,40.00,30,12,43,0.00
2013-6-16,91,80,69,27,20,12,15,11,7,0.00,40.00,30,13,44,0.00
2013-6-17,93,81,71,30,25,14,21,14,6,0.00,40.00,31,12,45,0.00
2013-6-18,88,78,68,31,24,11,21,14,8,0.00,40.00,30,18,46,0.00
2013-6-19,86,76,66,27,18,6,21,12,6,0.00,40.00,35,14,53,0.00
2013-6-20,86,74,65,23,13,7,15,10,6,0.00,40.00,30,15,41,0.00
2013-6-22,91,84,74,28,24,19,16,11,8,0.00,40.00,27,16,43,0.00
2013-6-23,86,76,67,36,30,26,26,19,13,0.00,40.00,48,15,64,0.00
2013-6-24,86,74,68,47,37,26,42,27,18,0.00,40.00,35,22,66,0.00
2013-6-25,90,77,65,48,45,41,54,33,21,0.00,40.00,33,13,46,0.00
2013-6-26,100,84,69,49,44,35,47,27,11,0.00,40.00,19,8,36,0.00
2013-6-27,101,88,75,48,42,35,35,22,11,0.00,40.00,14,7,24,0.00
2013-6-28,104,94,82,47,40,27,29,17,7,0.00,40.00,19,9,31,0.00
2013-6-29,107,94,82,46,39,30,27,15,7,0.00,40.00,20,9,29,0.00
2013-6-30,107,96,86,34,30,23,14,10,6,0.00,40.00,24,11,37,0.00
2013-7-1,107,97,87,39,31,24,16,10,7,0.00,40.00,21,9,31,0.00
2013-7-2,106,93,83,44,40,35,24,17,9,0.00,40.00,42,22,53,0.00
2013-7-3,105,93,86,41,39,35,20,16,9,0.00,40.00,42,24,68,0.00
2013-7-4,106,94,85,50,40,35,26,16,10,0.00,40.00,42,18,53,0.00
2013-7-5,102,91,82,47,43,35,29,20,11,0.00,40.00,25,14,43,0.00
2013-7-6,100,88,78,43,32,24,23,14,8,0.00,40.00,24,14,42,0.00
2013-7-7,99,88,79,33,27,22,17,11,7,0.00,40.00,28,9,44,0.00
2013-7-8,97,86,82,23,20,11,11,9,5,0.00,40.00,28,19,47,0.00
2013-7-9,101,89,81,28,17,6,12,7,5,0.00,40.00,27,13,46,0.00
2013-7-10,98,88,84,44,28,-100,25,12,7,0.00,40.00,24,12,38,0.00
2013-7-11,84,80,76,56,47,41,50,33,25,0.00,40.00,30,12,51,0.00
2013-7-12,93,81,71,43,34,13,35,20,7,0.00,40.00,23,11,37,0.00
2013-7-13,97,86,73,30,24,11,14,11,7,0.00,40.00,24,13,38,0.00
2013-7-14,98,88,80,38,30,27,16,13,10,0.00,40.00,24,13,37,0.00
2013-7-15,96,87,79,36,31,27,18,14,11,0.00,40.00,28,10,42,0.00
2013-7-16,94,88,80,31,26,23,14,11,8,0.00,40.00,19,11,38,0.00
2013-7-17,97,84,70,36,24,11,19,12,5,0.00,40.00,15,5,25,0.00
2013-7-18,101,90,76,33,26,18,18,11,6,0.00,40.00,14,7,22,0.00
2013-7-19,104,92,81,34,28,23,15,11,6,0.00,40.00,14,7,27,0.00
2013-7-20,100,89,77,43,34,27,23,14,10,0.00,40.00,16,6,25,0.00
2013-7-21,96,86,75,62,47,40,59,27,18,0.00,40.00,19,8,33,0.00
2013-7-22,91,78,69,65,59,54,88,56,30,0.00,40.00,20,6,32,0.05
2013-7-23,93,79,68,59,55,49,73,46,29,0.00,40.00,51,13,68,0.05
2013-7-24,97,86,74,55,49,37,48,29,17,0.00,40.00,19,9,32,0.01
2013-7-25,101,90,79,47,41,34,27,19,10,0.00,40.00,19,8,34,0.00
2013-7-26,88,84,81,52,47,39,37,28,18,0.00,40.00,22,11,32,0.00
2013-7-27,92,80,70,61,55,50,73,44,27,0.00,40.00,25,12,32,0.00
2013-7-28,90,80,73,58,52,44,50,38,29,0.00,40.00,20,6,27,0.60
2013-7-29,93,80,70,53,42,28,49,29,10,0.00,40.00,27,11,38,0.02
2013-7-30,94,84,72,40,37,31,28,19,13,0.00,40.00,20,9,32,0.00
2013-7-31,92,83,73,42,32,13,30,18,6,0.00,40.00,29,11,41,0.00
2013-8-1,91,81,69,34,29,23,24,15,10,0.00,40.00,28,13,44,0.00
2013-8-2,90,79,68,35,30,23,29,18,9,0.00,40.00,15,5,26,0.00
2013-8-3,93,80,67,25,21,16,17,12,6,0.00,40.00,14,6,26,0.00
2013-8-4,95,83,71,25,19,7,14,10,4,0.00,40.00,19,8,30,0.00
2013-8-5,94,83,72,27,23,13,17,11,7,0.00,40.00,20,10,35,0.00
2013-8-6,95,82,71,30,24,13,17,12,7,0.00,40.00,26,10,39,0.00
2013-8-7,89,79,69,35,28,6,27,17,6,0.00,40.00,35,12,49,0.00
2013-8-8,88,75,63,31,22,4,29,15,4,0.00,40.00,28,11,47,0.00
2013-8-9,88,76,62,34,27,15,33,18,7,0.00,40.00,21,8,31,0.00
2013-8-10,88,78,66,36,32,18,30,20,10,0.00,40.00,16,7,30,0.00
2013-8-11,91,80,67,39,28,19,24,16,8,0.00,40.00,19,8,30,0.00
2013-8-12,93,82,69,37,30,20,27,16,8,0.00,40.00,21,9,32,0.00
2013-8-13,97,84,73,29,23,-100,18,12,5,0.00,40.00,21,8,31,0.00
2013-8-14,98,86,77,28,20,-100,13,10,5,0.00,40.00,17,8,29,0.00
2013-8-15,97,81,76,35,17,-100,16,11,8,0.00,40.00,30,11,44,0.00
2013-8-16,97,87,77,43,35,31,20,16,12,0.00,40.00,26,9,38,0.00
2013-8-17,99,85,76,43,36,-100,31,19,10,0.00,40.00,21,7,31,0.00
2013-8-18,97,85,72,50,37,26,46,19,12,0.00,40.00,48,10,73,0.00
2013-8-19,95,77,69,52,39,-100,55,31,21,0.00,40.00,33,16,45,0.00
2013-8-20,97,85,77,47,39,-100,32,22,9,0.00,40.00,24,12,37,0.00
2013-8-21,95,86,79,43,36,31,27,18,12,0.00,40.00,24,11,37,0.00
2013-8-22,99,85,74,40,34,27,27,17,10,0.00,40.00,32,9,44,0.00
2013-8-23,94,82,71,37,28,17,28,15,7,0.00,40.00,26,11,41,0.00
2013-8-24,92,79,69,40,26,-100,26,16,6,0.00,40.00,26,9,38,0.00
2013-8-25,92,78,68,36,29,21,29,18,9,0.00,40.00,21,9,36,0.00
2013-8-26,88,77,66,59,53,48,74,46,28,0.00,40.00,19,11,30,0.00
2013-8-27,85,73,68,59,56,54,66,57,39,0.00,40.00,7,3,21,0.00
2013-8-28,92,87,79,52,48,42,38,26,21,0.00,40.00,25,15,38,0.00
2013-8-29,97,85,76,46,43,40,32,24,15,0.00,40.00,19,7,30,0.00
2013-8-30,96,83,74,60,54,43,53,37,24,0.00,40.00,18,6,30,0.00
2013-8-31,94,82,73,60,52,-100,56,38,24,0.00,40.00,13,5,25,0.00
2013-9-1,90,82,73,52,48,39,44,32,17,0.00,40.00,26,10,44,0.00
2013-9-2,93,83,72,55,46,38,52,29,15,0.00,40.00,27,12,42,0.00
2013-9-3,93,83,73,52,48,42,46,31,19,0.00,40.00,28,10,39,0.00
2013-9-4,97,84,75,50,45,38,38,27,14,0.00,40.00,24,7,37,0.00
2013-9-5,95,85,75,47,43,37,36,24,14,0.00,40.00,21,8,36,0.00
2013-9-6,96,86,79,43,36,31,26,17,11,0.00,40.00,18,11,34,0.00
2013-9-7,99,83,72,42,33,-100,30,18,8,0.00,40.00,19,8,36,0.00
2013-9-8,91,81,71,55,44,33,58,29,13,0.00,40.00,16,7,31,0.00
2013-9-9,93,80,67,55,43,33,58,30,15,0.00,40.00,21,9,30,0.00
2013-9-10,90,78,68,52,40,33,51,27,18,0.00,40.00,27,11,54,0.00
2013-9-11,86,76,66,41,38,37,38,26,18,0.00,40.00,20,3,34,0.00
2013-9-12,91,79,69,42,39,36,34,25,16,0.00,40.00,18,7,28,0.00
2013-9-13,93,81,72,45,41,37,32,24,17,0.00,40.00,19,8,28,0.00
2013-9-14,94,84,77,43,37,-100,28,20,12,0.00,40.00,17,12,29,0.00
2013-9-15,94,86,77,35,31,28,20,15,10,0.00,40.00,28,14,42,0.00
2013-9-16,91,83,75,36,30,26,23,15,10,0.00,40.00,32,12,44,0.00
2013-9-17,86,75,67,36,30,20,27,20,12,0.00,40.00,35,10,51,0.00
2013-9-18,76,71,65,34,25,19,32,19,14,0.00,40.00,28,10,49,0.00
2013-9-19,89,77,68,23,17,14,15,11,7,0.00,40.00,30,14,42,0.00
2013-9-20,87,78,71,32,22,15,21,13,9,0.00,40.00,33,13,43,0.00
2013-9-21,80,69,58,36,30,-100,44,25,17,0.00,40.00,23,11,62,0.00
2013-9-22,78,64,55,31,23,13,35,22,11,0.00,40.00,30,14,49,0.00
2013-9-23,83,71,62,29,25,20,26,18,12,0.00,40.00,13,5,22,0.00
2013-9-24,86,73,63,30,27,19,27,19,9,0.00,40.00,25,7,40,0.00
2013-9-25,77,68,57,30,25,-1,25,20,7,0.00,40.00,35,18,59,0.01
2013-9-26,68,57,49,24,18,8,31,22,13,0.00,40.00,36,22,48,0.01
2013-9-27,71,58,50,22,18,12,33,22,12,0.00,40.00,40,20,55,0.00
2013-9-28,77,66,56,19,14,-100,20,14,9,0.00,40.00,10,4,22,0.00
2013-9-29,85,71,60,19,16,13,17,12,8,0.00,40.00,26,6,37,0.00
2013-9-30,84,74,63,32,20,14,22,13,10,0.00,40.00,27,10,41,0.00
2013-10-1,83,76,67,38,32,22,34,21,13,0.00,40.00,31,12,41,0.00
2013-10-2,83,70,61,43,36,19,48,31,14,0.00,40.00,30,9,50,0.00
2013-10-3,81,69,58,27,15,2,23,13,7,0.00,40.00,50,20,67,0.00
2013-10-4,67,58,50,13,7,2,22,14,8,0.00,40.00,55,34,74,0.00
2013-10-5,76,62,55,10,7,6,15,11,7,0.00,40.00,31,16,46,0.00
2013-10-6,80,68,57,8,5,2,12,8,6,0.00,40.00,10,4,18,0.00
2013-10-7,78,69,61,9,3,-2,9,7,6,0.00,40.00,22,7,32,0.00
2013-10-8,77,67,60,14,7,-4,15,10,6,0.00,40.00,27,12,48,0.00
2013-10-9,62,53,45,38,27,11,73,40,13,0.00,40.00,38,23,52,0.00
2013-10-10,66,55,45,39,33,28,76,46,24,0.00,40.00,23,7,33,0.00
2013-10-11,69,59,50,33,29,23,48,33,19,0.00,40.00,18,5,27,0.00
2013-10-12,72,61,53,31,22,-100,38,25,11,0.00,40.00,28,10,45,0.00
2013-10-13,72,60,54,27,21,14,32,22,14,0.00,40.00,22,11,43,0.00
2013-10-14,68,58,51,29,24,15,42,29,13,0.00,40.00,31,16,41,0.00
2013-10-15,68,59,53,26,20,11,33,22,13,0.00,40.00,39,16,55,0.00
2013-10-16,72,59,50,19,14,10,26,18,11,0.00,40.00,18,7,27,0.00
2013-10-17,75,63,55,16,12,10,18,14,9,0.00,40.00,12,4,18,0.00
2013-10-18,78,66,57,14,12,9,17,12,8,0.00,40.00,31,14,47,0.00
2013-10-19,79,68,60,14,9,-100,13,10,7,0.00,40.00,11,4,18,0.00
2013-10-20,82,71,62,13,10,7,11,9,7,0.00,40.00,14,5,25,0.00
2013-10-21,78,70,63,13,11,8,13,10,7,0.00,40.00,29,12,40,0.00
2013-10-22,79,69,61,18,14,10,14,12,9,0.00,40.00,11,4,22,0.00
2013-10-23,80,69,62,18,15,13,18,13,9,0.00,40.00,18,7,24,0.00
2013-10-24,80,70,63,18,15,12,15,12,9,0.00,40.00,20,10,28,0.00
2013-10-25,81,71,63,20,15,12,16,12,8,0.00,40.00,14,6,22,0.00
2013-10-26,81,70,63,20,14,-100,16,12,8,0.00,40.00,9,4,18,0.00
2013-10-27,78,68,59,29,19,12,32,17,9,0.00,40.00,24,7,58,0.00
2013-10-28,60,48,43,35,27,15,69,46,21,0.00,40.00,30,16,58,0.00
2013-10-29,58,47,39,33,29,24,74,49,34,0.00,40.00,21,8,37,0.00
2013-10-30,61,50,42,29,24,21,49,37,22,0.00,40.00,28,8,39,0.00
2013-10-31,67,56,49,22,17,12,34,22,14,0.00,40.00,8,2,14,0.00
2013-11-1,73,60,52,22,18,14,24,19,13,0.00,40.00,10,4,16,0.00
2013-11-2,70,60,53,22,19,-100,25,21,15,0.00,40.00,10,4,18,0.00
2013-11-3,69,59,53,26,19,11,29,22,14,0.00,40.00,20,7,49,0.00
2013-11-4,57,52,47,25,19,12,36,27,22,0.00,40.00,38,21,48,0.00
2013-11-5,60,49,42,13,6,1,27,18,10,0.00,40.00,33,16,52,0.00
2013-11-6,66,55,46,10,5,1,16,13,9,0.00,40.00,9,2,19,0.00
2013-11-7,67,60,53,18,14,10,24,16,12,0.00,40.00,10,3,17,0.00
2013-11-8,70,60,53,15,12,10,19,16,11,0.00,40.00,8,3,16,0.00
2013-11-9,70,60,54,14,10,-100,19,14,11,0.00,40.00,8,2,15,0.00
2013-11-10,70,62,56,12,9,4,15,12,9,0.00,40.00,8,4,15,0.00
2013-11-11,75,64,57,12,7,2,14,11,8,0.00,40.00,12,3,17,0.00
2013-11-12,74,67,63,12,9,2,13,10,8,0.00,40.00,6,2,11,0.00
2013-11-13,77,66,60,23,19,11,23,17,11,0.00,40.00,29,7,37,0.00
2013-11-14,73,65,59,24,19,8,26,17,10,0.00,40.00,27,11,37,0.00
2013-11-15,66,60,50,28,18,5,43,21,10,0.00,40.00,29,12,42,0.00
2013-11-16,61,50,42,35,30,-100,68,49,32,0.00,40.00,7,2,19,0.00
2013-11-17,60,52,44,34,31,29,59,46,33,0.00,40.00,13,4,20,0.00
2013-11-18,60,53,48,36,34,31,57,48,36,0.00,40.00,13,5,22,0.00
2013-11-19,58,51,46,36,34,31,64,53,42,0.00,40.00,7,4,16,0.00
2013-11-20,63,54,47,36,34,32,62,48,36,0.00,40.00,19,7,34,0.00
2013-11-21,55,46,35,37,34,30,93,65,47,0.00,40.00,60,26,81,0.03
2013-11-22,38,34,32,33,32,31,100,95,76,0.00,40.00,65,55,88,0.08
2013-11-23,45,40,37,37,30,-100,89,71,50,0.00,40.00,60,26,79,0.04
2013-11-24,55,44,37,38,32,25,89,63,46,0.00,40.00,9,2,14,0.01
2013-11-25,61,51,44,33,26,21,49,38,30,0.00,40.00,31,8,43,0.00
2013-11-26,59,53,47,32,25,18,43,34,26,0.00,40.00,7,3,13,0.00
2013-11-27,60,53,47,32,27,21,54,37,27,0.00,40.00,9,3,16,0.00
2013-11-28,59,51,47,32,28,25,54,42,29,0.00,40.00,8,4,11,0.00
2013-11-29,56,50,46,28,27,25,48,41,33,0.00,40.00,17,9,24,0.00
2013-11-30,59,51,46,27,22,-100,46,34,25,0.00,40.00,18,8,31,0.00
2013-12-1,64,54,49,23,19,16,30,25,18,0.00,40.00,11,3,18,0.00
2013-12-2,68,60,50,23,14,5,25,17,9,0.00,40.00,23,8,40,0.00
2013-12-3,63,55,39,33,24,8,47,32,13,0.00,40.00,28,15,74,0.00
2013-12-4,41,34,30,14,7,3,41,32,21,0.00,40.00,32,16,47,0.00
2013-12-5,42,32,27,10,7,3,46,35,23,0.00,40.00,18,5,24,0.00
2013-12-6,41,33,27,9,5,-8,46,31,15,0.00,40.00,9,4,23,0.00
2013-12-7,40,35,32,31,9,-100,85,38,17,0.00,40.00,31,18,63,0.00
2013-12-8,34,30,26,9,6,1,45,37,25,0.00,40.00,18,9,31,0.00
2013-12-9,41,32,23,4,-1,-8,41,24,17,0.00,40.00,35,10,50,0.00
2013-12-10,46,37,29,2,-6,-100,25,19,13,0.00,40.00,6,-45,14,0.00
2013-12-11,52,43,37,7,4,-1,23,19,12,0.00,40.00,12,3,18,0.00
2013-12-12,55,46,41,10,6,2,23,19,14,0.00,40.00,14,4,17,0.00
2013-12-13,58,48,40,18,8,1,28,20,10,0.00,40.00,37,10,51,0.00
2013-12-14,59,48,41,20,15,-100,43,28,18,0.00,40.00,35,14,47,0.00
2013-12-15,62,52,44,13,10,6,23,18,14,0.00,40.00,10,4,16,0.00
2013-12-16,63,59,52,14,10,8,18,14,12,0.00,40.00,8,5,16,0.00
2013-12-17,66,60,55,13,11,7,17,15,12,0.00,40.00,7,2,10,0.00
2013-12-18,58,54,48,17,14,11,26,21,15,0.00,40.00,8,3,23,0.00
2013-12-19,52,44,38,36,23,11,90,49,20,0.00,40.00,49,24,65,0.03
2013-12-20,51,40,32,18,11,0,51,34,12,0.00,40.00,43,21,60,0.02
2013-12-21,58,49,41,26,18,-100,44,31,22,0.00,40.00,9,2,15,0.00
2013-12-22,59,50,45,26,23,19,42,35,25,0.00,40.00,8,2,13,0.00
2013-12-23,62,51,45,27,25,21,47,36,25,0.00,40.00,8,2,14,0.00
2013-12-24,64,54,46,27,22,15,40,29,16,0.00,40.00,35,6,48,0.00
2013-12-25,64,53,47,17,11,-13,29,19,6,0.00,40.00,31,12,44,0.00
2013-12-26,60,52,43,4,0,-16,18,12,4,0.00,40.00,19,9,25,0.00
2013-12-27,64,57,52,2,-4,-14,10,8,5,0.00,40.00,9,2,16,0.00
2013-12-28,61,54,49,4,-3,-100,13,10,7,0.00,40.00,52,19,67,0.00
2013-12-29,61,51,47,4,-1,-8,15,11,6,0.00,40.00,52,20,69,0.00
2013-12-30,61,51,46,4,-2,-7,12,11,9,0.00,40.00,8,2,11,0.00
2013-12-31,60,51,46,4,1,-3,15,12,10,0.00,40.00,7,2,12,0.00
2014-1-1,64,55,49,14,8,2,21,15,11,0.00,40.00,9,3,21,0.00
2014-1-2,64,55,50,20,17,14,27,23,15,0.00,40.00,7,2,14,0.00